Terminal Aerodrome Forecast
Issued by NWS

Home | Current Version | Previous Version | Text Only | Print | Product List | Glossary On
Versions: 1 2 3 4 5 6 7 8 9 10 11 12 13 14 15 16 17 18 19
432
FTUS41 KCAR 011728 AAC
TAFHUL
TAF AMD
KHUL 011728Z 0117/0218 19008KT 3SM -RA BR SCT005 OVC009
      TEMPO 0118/0121 1SM -RA BR VV003
     FM012100 20009KT 1SM -RA BR OVC005 WS020/21040KT
     FM012200 20009KT 1SM -RA BR OVC004
     FM021400 22009KT P6SM BKN035
     FM021500 24010KT P6SM BKN030=

USA.gov is the U.S. government's official web portal to all federal, state and local government web resources and services.